Aviation Digital Data Service (ADDS)

Output produced by METARs form (1516 UTC 27 February 2015)
found at http://aviationweather.gov/adds/metars/
 
KBTV 271122Z 2712/2812 VRB03KT P6SM SCT150 
     FM271800 32004KT P6SM SKC 
     FM280000 VRB03KT P6SM SKC